Galt, Missouri
Current Conditions -  °F | °C
As of 1:53 AM on Wednesday 22 Oct 2014 (Local Time) from KLWD Reporting Station
Clear Clear  
Wind Chill: 46°   Ceiling: Unl
Heat Index: 48°   Visibility: 10mi
Dew Point: 40°   Wind: 5mph
Humidity: 74%   Direction: 120°ESE
Pressure: 30.17"   Gusts: NA
Location:  40.13°N, 93.39°W
Report Text: KLWD 220653Z AUTO 12004KT 10SM CLR 09/04 A3017 RMK AO2 SLP216 T00890044
Loading
Personal Weather Stations






























Interactive Weather Map
Tropical Storm Tracking
New forecast layout! Learn more

10-Day Weather Forecast

Advertisements
Track Severe Weather on mobile